createdAt,value
2023-10-14T00:28:43.020Z,82.36
2023-10-14T00:58:45.937Z,81.51
2023-10-14T01:28:49.492Z,80.12
2023-10-14T01:58:52.407Z,78.05
2023-10-14T02:28:56.027Z,75.74
2023-10-14T02:58:59.048Z,75.43
2023-10-14T03:29:02.796Z,74.85
2023-10-14T03:59:05.776Z,74.14
2023-10-14T04:29:09.853Z,74.74
2023-10-14T04:59:12.759Z,73.28
2023-10-14T05:29:16.388Z,74.06
2023-10-14T05:59:19.348Z,72.64
2023-10-14T06:29:22.989Z,71.08
2023-10-14T06:59:26.411Z,69.51
2023-10-14T07:29:30.073Z,67.17
2023-10-14T07:59:32.993Z,65.05
2023-10-14T08:29:36.778Z,66.72
2023-10-14T08:59:39.744Z,67.38
2023-10-14T09:29:43.268Z,69.59
2023-10-14T09:59:47.228Z,69.70
2023-10-14T10:29:51.064Z,75.93
2023-10-14T10:59:54.143Z,77.81
2023-10-14T11:29:58.239Z,78.76
2023-10-14T12:00:01.230Z,75.69
2023-10-14T12:30:04.436Z,72.76
2023-10-14T13:00:07.346Z,68.46
2023-10-14T13:30:10.587Z,65.51
2023-10-14T14:00:13.489Z,65.47
2023-10-14T14:30:17.553Z,63.56
2023-10-14T15:00:20.520Z,65.44
2023-10-14T15:30:23.976Z,66.53
2023-10-14T16:00:27.093Z,67.37
2023-10-14T16:30:31.181Z,67.21
2023-10-14T17:00:34.239Z,68.05
2023-10-14T17:30:37.303Z,70.80
2023-10-14T18:00:40.740Z,70.95
2023-10-14T18:30:44.538Z,70.75
2023-10-14T19:00:47.689Z,72.99
2023-10-14T19:30:52.542Z,73.91
2023-10-14T20:00:55.773Z,75.08
2023-10-14T20:31:00.162Z,74.86
2023-10-14T21:01:03.288Z,74.04
2023-10-14T21:31:06.427Z,73.58
2023-10-14T22:01:10.217Z,74.05
2023-10-14T22:31:13.323Z,75.18
2023-10-14T23:01:17.601Z,76.42
2023-10-14T23:31:22.251Z,77.81
